sensor_id;sensor_type;location;lat;lon;timestamp;temperature;humidity
50586;DHT22;36542;51.700;8.846;2024-03-08T00:01:15;1.80;99.90
50586;DHT22;36542;51.700;8.846;2024-03-08T00:03:42;1.80;99.90
50586;DHT22;36542;51.700;8.846;2024-03-08T00:06:08;1.80;99.90
50586;DHT22;36542;51.700;8.846;2024-03-08T00:08:33;1.80;99.90
50586;DHT22;36542;51.700;8.846;2024-03-08T00:10:59;1.80;99.90
50586;DHT22;36542;51.700;8.846;2024-03-08T00:13:24;1.80;99.90
50586;DHT22;36542;51.700;8.846;2024-03-08T00:15:50;1.70;99.90
50586;DHT22;36542;51.700;8.846;2024-03-08T00:18:16;1.80;99.90
50586;DHT22;36542;51.700;8.846;2024-03-08T00:20:42;1.70;99.90
50586;DHT22;36542;51.700;8.846;2024-03-08T00:23:10;1.70;99.90
50586;DHT22;36542;51.700;8.846;2024-03-08T00:25:36;1.70;99.90
50586;DHT22;36542;51.700;8.846;2024-03-08T00:28:02;1.70;99.90
50586;DHT22;36542;51.700;8.846;2024-03-08T00:30:30;1.70;99.90
50586;DHT22;36542;51.700;8.846;2024-03-08T00:32:56;1.70;99.90
50586;DHT22;36542;51.700;8.846;2024-03-08T00:35:22;1.70;99.90
50586;DHT22;36542;51.700;8.846;2024-03-08T00:37:48;1.70;99.90
50586;DHT22;36542;51.700;8.846;2024-03-08T00:40:14;1.70;99.90
50586;DHT22;36542;51.700;8.846;2024-03-08T00:42:40;1.80;99.90
50586;DHT22;36542;51.700;8.846;2024-03-08T00:45:07;1.80;99.90
50586;DHT22;36542;51.700;8.846;2024-03-08T00:47:33;1.70;99.90
50586;DHT22;36542;51.700;8.846;2024-03-08T00:49:58;1.70;99.90
50586;DHT22;36542;51.700;8.846;2024-03-08T00:52:24;1.70;99.90
50586;DHT22;36542;51.700;8.846;2024-03-08T00:54:50;1.70;99.90
50586;DHT22;36542;51.700;8.846;2024-03-08T00:57:16;1.80;99.90
50586;DHT22;36542;51.700;8.846;2024-03-08T00:59:41;1.80;99.90
50586;DHT22;36542;51.700;8.846;2024-03-08T01:02:07;1.70;99.90
50586;DHT22;36542;51.700;8.846;2024-03-08T01:04:34;1.70;99.90
50586;DHT22;36542;51.700;8.846;2024-03-08T01:07:00;1.70;99.90
50586;DHT22;36542;51.700;8.846;2024-03-08T01:09:26;1.80;99.90
50586;DHT22;36542;51.700;8.846;2024-03-08T01:11:55;1.80;99.90
50586;DHT22;36542;51.700;8.846;2024-03-08T01:14:22;1.80;99.90
50586;DHT22;36542;51.700;8.846;2024-03-08T01:16:49;1.80;99.90
50586;DHT22;36542;51.700;8.846;2024-03-08T01:19:14;1.70;99.90
50586;DHT22;36542;51.700;8.846;2024-03-08T01:21:41;1.80;99.90
50586;DHT22;36542;51.700;8.846;2024-03-08T01:24:06;1.80;99.90
50586;DHT22;36542;51.700;8.846;2024-03-08T01:26:32;1.80;99.90
50586;DHT22;36542;51.700;8.846;2024-03-08T01:29:00;1.80;99.90
50586;DHT22;36542;51.700;8.846;2024-03-08T01:31:25;1.80;99.90
50586;DHT22;36542;51.700;8.846;2024-03-08T01:33:51;1.70;99.90
50586;DHT22;36542;51.700;8.846;2024-03-08T01:36:17;1.70;99.90
50586;DHT22;36542;51.700;8.846;2024-03-08T01:38:44;1.60;99.90
50586;DHT22;36542;51.700;8.846;2024-03-08T01:41:10;1.60;99.90
50586;DHT22;36542;51.700;8.846;2024-03-08T01:43:37;1.60;99.90
50586;DHT22;36542;51.700;8.846;2024-03-08T01:46:05;1.60;99.90
50586;DHT22;36542;51.700;8.846;2024-03-08T01:48:31;1.60;99.90
50586;DHT22;36542;51.700;8.846;2024-03-08T01:50:57;1.60;99.90
50586;DHT22;36542;51.700;8.846;2024-03-08T01:53:26;1.50;99.90
50586;DHT22;36542;51.700;8.846;2024-03-08T01:55:56;1.50;99.90
50586;DHT22;36542;51.700;8.846;2024-03-08T01:58:23;1.50;99.90
50586;DHT22;36542;51.700;8.846;2024-03-08T02:00:49;1.50;99.90
50586;DHT22;36542;51.700;8.846;2024-03-08T02:03:18;1.50;99.90
50586;DHT22;36542;51.700;8.846;2024-03-08T02:05:44;1.40;99.90
50586;DHT22;36542;51.700;8.846;2024-03-08T02:08:09;1.40;99.90
50586;DHT22;36542;51.700;8.846;2024-03-08T02:10:44;1.40;99.90
50586;DHT22;36542;51.700;8.846;2024-03-08T02:13:11;1.40;99.90
50586;DHT22;36542;51.700;8.846;2024-03-08T02:16:03;1.30;99.90
50586;DHT22;36542;51.700;8.846;2024-03-08T02:18:30;1.30;99.90
50586;DHT22;36542;51.700;8.846;2024-03-08T02:20:57;1.30;99.90
50586;DHT22;36542;51.700;8.846;2024-03-08T02:23:24;1.30;99.90
50586;DHT22;36542;51.700;8.846;2024-03-08T02:25:54;1.30;99.90
50586;DHT22;36542;51.700;8.846;2024-03-08T02:28:20;1.30;99.90
50586;DHT22;36542;51.700;8.846;2024-03-08T02:30:46;1.30;99.90
50586;DHT22;36542;51.700;8.846;2024-03-08T02:33:14;1.20;99.90
50586;DHT22;36542;51.700;8.846;2024-03-08T02:35:44;1.20;99.90
50586;DHT22;36542;51.700;8.846;2024-03-08T02:38:13;1.20;99.90
50586;DHT22;36542;51.700;8.846;2024-03-08T02:40:45;1.10;99.90
50586;DHT22;36542;51.700;8.846;2024-03-08T02:43:12;1.10;99.90
50586;DHT22;36542;51.700;8.846;2024-03-08T02:45:38;1.10;99.90
50586;DHT22;36542;51.700;8.846;2024-03-08T02:48:05;1.10;99.90
50586;DHT22;36542;51.700;8.846;2024-03-08T02:50:34;1.00;99.90
50586;DHT22;36542;51.700;8.846;2024-03-08T02:53:00;1.10;99.90
50586;DHT22;36542;51.700;8.846;2024-03-08T02:55:26;1.10;99.90
50586;DHT22;36542;51.700;8.846;2024-03-08T02:57:52;1.10;99.90
50586;DHT22;36542;51.700;8.846;2024-03-08T03:00:20;1.00;99.90
50586;DHT22;36542;51.700;8.846;2024-03-08T03:02:49;1.00;99.90
50586;DHT22;36542;51.700;8.846;2024-03-08T03:05:22;1.00;99.90
50586;DHT22;36542;51.700;8.846;2024-03-08T03:07:48;1.00;99.90
50586;DHT22;36542;51.700;8.846;2024-03-08T03:10:14;1.00;99.90
50586;DHT22;36542;51.700;8.846;2024-03-08T03:12:45;1.00;99.90
50586;DHT22;36542;51.700;8.846;2024-03-08T03:15:12;1.00;99.90
50586;DHT22;36542;51.700;8.846;2024-03-08T03:17:38;0.90;99.90
50586;DHT22;36542;51.700;8.846;2024-03-08T03:20:08;0.90;99.90
50586;DHT22;36542;51.700;8.846;2024-03-08T03:22:39;0.80;99.90
50586;DHT22;36542;51.700;8.846;2024-03-08T03:25:07;0.80;99.90
50586;DHT22;36542;51.700;8.846;2024-03-08T03:27:33;0.70;99.90
50586;DHT22;36542;51.700;8.846;2024-03-08T03:29:59;0.70;99.90
50586;DHT22;36542;51.700;8.846;2024-03-08T03:32:44;0.70;99.90
50586;DHT22;36542;51.700;8.846;2024-03-08T03:35:13;0.60;99.90
50586;DHT22;36542;51.700;8.846;2024-03-08T03:37:38;0.60;99.90
50586;DHT22;36542;51.700;8.846;2024-03-08T03:40:06;0.50;99.90
50586;DHT22;36542;51.700;8.846;2024-03-08T03:42:33;0.50;99.90
50586;DHT22;36542;51.700;8.846;2024-03-08T03:44:59;0.50;99.90
50586;DHT22;36542;51.700;8.846;2024-03-08T03:47:25;0.50;99.90
50586;DHT22;36542;51.700;8.846;2024-03-08T03:49:52;0.50;99.90
50586;DHT22;36542;51.700;8.846;2024-03-08T03:52:19;0.50;99.90
50586;DHT22;36542;51.700;8.846;2024-03-08T03:54:45;0.50;99.90
50586;DHT22;36542;51.700;8.846;2024-03-08T03:57:11;0.50;99.90
50586;DHT22;36542;51.700;8.846;2024-03-08T03:59:37;0.50;99.90
50586;DHT22;36542;51.700;8.846;2024-03-08T04:02:03;0.50;99.90
50586;DHT22;36542;51.700;8.846;2024-03-08T04:04:29;0.50;99.90
50586;DHT22;36542;51.700;8.846;2024-03-08T04:06:54;0.60;99.90
50586;DHT22;36542;51.700;8.846;2024-03-08T04:09:20;0.60;99.90
50586;DHT22;36542;51.700;8.846;2024-03-08T04:11:48;0.60;99.90
50586;DHT22;36542;51.700;8.846;2024-03-08T04:14:14;0.50;99.90
50586;DHT22;36542;51.700;8.846;2024-03-08T04:16:39;0.60;99.90
50586;DHT22;36542;51.700;8.846;2024-03-08T04:19:05;0.60;99.90
50586;DHT22;36542;51.700;8.846;2024-03-08T04:21:30;0.60;99.90
50586;DHT22;36542;51.700;8.846;2024-03-08T04:23:56;0.60;99.90
50586;DHT22;36542;51.700;8.846;2024-03-08T04:26:22;0.60;99.90
50586;DHT22;36542;51.700;8.846;2024-03-08T04:28:48;0.60;99.90
50586;DHT22;36542;51.700;8.846;2024-03-08T04:31:13;0.60;99.90
50586;DHT22;36542;51.700;8.846;2024-03-08T04:33:41;0.50;99.90
50586;DHT22;36542;51.700;8.846;2024-03-08T04:36:07;0.60;99.90
50586;DHT22;36542;51.700;8.846;2024-03-08T04:38:33;0.50;99.90
50586;DHT22;36542;51.700;8.846;2024-03-08T04:40:59;0.50;99.90
50586;DHT22;36542;51.700;8.846;2024-03-08T04:43:28;0.50;99.90
50586;DHT22;36542;51.700;8.846;2024-03-08T04:45:55;0.50;99.90
50586;DHT22;36542;51.700;8.846;2024-03-08T04:48:21;0.40;99.90
50586;DHT22;36542;51.700;8.846;2024-03-08T04:50:47;0.50;99.90
50586;DHT22;36542;51.700;8.846;2024-03-08T04:53:12;0.50;99.90
50586;DHT22;36542;51.700;8.846;2024-03-08T04:55:39;0.50;99.90
50586;DHT22;36542;51.700;8.846;2024-03-08T04:58:04;0.40;99.90
50586;DHT22;36542;51.700;8.846;2024-03-08T05:00:31;0.40;99.90
50586;DHT22;36542;51.700;8.846;2024-03-08T05:02:58;0.50;99.90
50586;DHT22;36542;51.700;8.846;2024-03-08T05:05:24;0.40;99.90
50586;DHT22;36542;51.700;8.846;2024-03-08T05:07:50;0.40;99.90
50586;DHT22;36542;51.700;8.846;2024-03-08T05:10:16;0.40;99.90
50586;DHT22;36542;51.700;8.846;2024-03-08T05:12:43;0.30;99.90
50586;DHT22;36542;51.700;8.846;2024-03-08T05:15:09;0.30;99.90
50586;DHT22;36542;51.700;8.846;2024-03-08T05:17:35;0.30;99.90
50586;DHT22;36542;51.700;8.846;2024-03-08T05:20:00;0.40;99.90
50586;DHT22;36542;51.700;8.846;2024-03-08T05:22:26;0.30;99.90
50586;DHT22;36542;51.700;8.846;2024-03-08T05:24:52;0.30;99.90
50586;DHT22;36542;51.700;8.846;2024-03-08T05:27:17;0.30;99.90
50586;DHT22;36542;51.700;8.846;2024-03-08T05:29:43;0.20;99.90
50586;DHT22;36542;51.700;8.846;2024-03-08T05:32:08;0.30;99.90
50586;DHT22;36542;51.700;8.846;2024-03-08T05:34:35;0.30;99.90
50586;DHT22;36542;51.700;8.846;2024-03-08T05:37:01;0.30;99.90
50586;DHT22;36542;51.700;8.846;2024-03-08T05:39:27;0.30;99.90
50586;DHT22;36542;51.700;8.846;2024-03-08T05:41:53;0.20;99.90
50586;DHT22;36542;51.700;8.846;2024-03-08T05:44:20;0.20;99.90
50586;DHT22;36542;51.700;8.846;2024-03-08T05:46:46;0.20;99.90
50586;DHT22;36542;51.700;8.846;2024-03-08T05:49:12;0.20;99.90
50586;DHT22;36542;51.700;8.846;2024-03-08T05:51:39;0.20;99.90
50586;DHT22;36542;51.700;8.846;2024-03-08T05:54:07;0.20;99.90
50586;DHT22;36542;51.700;8.846;2024-03-08T05:56:34;0.20;99.90
50586;DHT22;36542;51.700;8.846;2024-03-08T05:59:01;0.20;99.90
50586;DHT22;36542;51.700;8.846;2024-03-08T06:01:28;0.20;99.90
50586;DHT22;36542;51.700;8.846;2024-03-08T06:03:54;0.20;99.90
50586;DHT22;36542;51.700;8.846;2024-03-08T06:06:23;0.20;99.90
50586;DHT22;36542;51.700;8.846;2024-03-08T06:08:50;0.20;99.90
50586;DHT22;36542;51.700;8.846;2024-03-08T06:11:17;0.30;99.90
50586;DHT22;36542;51.700;8.846;2024-03-08T06:13:43;0.30;99.90
50586;DHT22;36542;51.700;8.846;2024-03-08T06:16:09;0.30;99.90
50586;DHT22;36542;51.700;8.846;2024-03-08T06:18:35;0.60;99.90
50586;DHT22;36542;51.700;8.846;2024-03-08T06:21:05;0.90;99.90
50586;DHT22;36542;51.700;8.846;2024-03-08T06:23:34;1.30;99.90
50586;DHT22;36542;51.700;8.846;2024-03-08T06:26:03;1.60;99.90
50586;DHT22;36542;51.700;8.846;2024-03-08T06:28:28;1.60;99.90
50586;DHT22;36542;51.700;8.846;2024-03-08T06:30:54;1.70;99.90
50586;DHT22;36542;51.700;8.846;2024-03-08T06:33:20;1.70;99.90
50586;DHT22;36542;51.700;8.846;2024-03-08T06:35:45;1.70;99.90
50586;DHT22;36542;51.700;8.846;2024-03-08T06:38:11;1.70;99.90
50586;DHT22;36542;51.700;8.846;2024-03-08T06:40:37;1.70;99.90
50586;DHT22;36542;51.700;8.846;2024-03-08T06:43:02;1.70;99.90
50586;DHT22;36542;51.700;8.846;2024-03-08T06:45:31;1.70;99.90
50586;DHT22;36542;51.700;8.846;2024-03-08T06:47:57;1.70;99.90
50586;DHT22;36542;51.700;8.846;2024-03-08T06:50:23;1.70;99.90
50586;DHT22;36542;51.700;8.846;2024-03-08T06:52:48;1.80;99.90
50586;DHT22;36542;51.700;8.846;2024-03-08T06:55:19;2.00;99.90
50586;DHT22;36542;51.700;8.846;2024-03-08T06:57:45;2.50;99.90
50586;DHT22;36542;51.700;8.846;2024-03-08T07:00:11;3.40;99.90
50586;DHT22;36542;51.700;8.846;2024-03-08T07:02:45;4.10;99.90
50586;DHT22;36542;51.700;8.846;2024-03-08T07:05:11;4.80;99.90
50586;DHT22;36542;51.700;8.846;2024-03-08T07:07:37;5.70;99.90
50586;DHT22;36542;51.700;8.846;2024-03-08T07:10:03;6.30;99.90
50586;DHT22;36542;51.700;8.846;2024-03-08T07:12:29;6.20;99.90
50586;DHT22;36542;51.700;8.846;2024-03-08T07:14:55;6.30;99.90
50586;DHT22;36542;51.700;8.846;2024-03-08T07:17:21;6.80;99.90
50586;DHT22;36542;51.700;8.846;2024-03-08T07:19:46;6.80;99.90
50586;DHT22;36542;51.700;8.846;2024-03-08T07:22:12;7.00;99.90
50586;DHT22;36542;51.700;8.846;2024-03-08T07:24:38;7.60;99.90
50586;DHT22;36542;51.700;8.846;2024-03-08T07:27:19;8.00;99.90
50586;DHT22;36542;51.700;8.846;2024-03-08T07:29:45;7.80;99.90
50586;DHT22;36542;51.700;8.846;2024-03-08T07:32:11;7.90;99.90
50586;DHT22;36542;51.700;8.846;2024-03-08T07:34:51;8.50;99.90
50586;DHT22;36542;51.700;8.846;2024-03-08T07:37:17;8.40;99.90
50586;DHT22;36542;51.700;8.846;2024-03-08T07:39:44;8.20;99.90
50586;DHT22;36542;51.700;8.846;2024-03-08T07:42:10;8.50;99.90
50586;DHT22;36542;51.700;8.846;2024-03-08T07:44:38;8.20;99.90
50586;DHT22;36542;51.700;8.846;2024-03-08T07:47:04;8.30;99.90
50586;DHT22;36542;51.700;8.846;2024-03-08T07:49:29;8.60;99.90
50586;DHT22;36542;51.700;8.846;2024-03-08T07:51:56;9.10;99.90
50586;DHT22;36542;51.700;8.846;2024-03-08T07:54:22;9.10;99.90
50586;DHT22;36542;51.700;8.846;2024-03-08T07:56:47;8.60;99.90
50586;DHT22;36542;51.700;8.846;2024-03-08T07:59:13;8.70;99.90
50586;DHT22;36542;51.700;8.846;2024-03-08T08:01:38;9.30;99.90
50586;DHT22;36542;51.700;8.846;2024-03-08T08:04:04;9.40;99.90
50586;DHT22;36542;51.700;8.846;2024-03-08T08:06:30;8.70;99.90
50586;DHT22;36542;51.700;8.846;2024-03-08T08:08:59;8.20;99.90
50586;DHT22;36542;51.700;8.846;2024-03-08T08:11:28;8.50;99.90
50586;DHT22;36542;51.700;8.846;2024-03-08T08:13:54;8.90;99.90
50586;DHT22;36542;51.700;8.846;2024-03-08T08:16:23;8.80;99.90
50586;DHT22;36542;51.700;8.846;2024-03-08T08:18:50;9.40;99.90
50586;DHT22;36542;51.700;8.846;2024-03-08T08:21:16;9.50;99.90
50586;DHT22;36542;51.700;8.846;2024-03-08T08:23:43;9.70;99.90
50586;DHT22;36542;51.700;8.846;2024-03-08T08:26:10;10.10;99.90
50586;DHT22;36542;51.700;8.846;2024-03-08T08:28:36;10.00;99.90
50586;DHT22;36542;51.700;8.846;2024-03-08T08:31:02;10.20;99.90
50586;DHT22;36542;51.700;8.846;2024-03-08T08:33:29;10.10;99.90
50586;DHT22;36542;51.700;8.846;2024-03-08T08:35:55;10.50;99.90
50586;DHT22;36542;51.700;8.846;2024-03-08T08:38:21;10.40;99.90
50586;DHT22;36542;51.700;8.846;2024-03-08T08:40:48;10.70;99.90
50586;DHT22;36542;51.700;8.846;2024-03-08T08:43:14;10.30;99.90
50586;DHT22;36542;51.700;8.846;2024-03-08T08:45:40;10.30;99.90
50586;DHT22;36542;51.700;8.846;2024-03-08T08:48:06;10.40;99.90
50586;DHT22;36542;51.700;8.846;2024-03-08T08:50:32;10.30;99.90
50586;DHT22;36542;51.700;8.846;2024-03-08T08:52:57;10.50;99.90
50586;DHT22;36542;51.700;8.846;2024-03-08T08:55:24;10.20;99.90
50586;DHT22;36542;51.700;8.846;2024-03-08T08:57:53;10.20;99.90
50586;DHT22;36542;51.700;8.846;2024-03-08T09:00:19;10.50;99.90
50586;DHT22;36542;51.700;8.846;2024-03-08T09:02:46;10.90;99.90
50586;DHT22;36542;51.700;8.846;2024-03-08T09:05:13;11.00;99.90
50586;DHT22;36542;51.700;8.846;2024-03-08T09:07:43;10.40;99.90
50586;DHT22;36542;51.700;8.846;2024-03-08T09:10:10;10.50;99.90
50586;DHT22;36542;51.700;8.846;2024-03-08T09:12:40;10.80;99.90
50586;DHT22;36542;51.700;8.846;2024-03-08T09:15:06;10.70;99.90
50586;DHT22;36542;51.700;8.846;2024-03-08T09:17:34;10.40;99.90
50586;DHT22;36542;51.700;8.846;2024-03-08T09:19:59;10.00;99.90
50586;DHT22;36542;51.700;8.846;2024-03-08T09:22:25;10.40;99.90
50586;DHT22;36542;51.700;8.846;2024-03-08T09:24:51;10.80;99.90
50586;DHT22;36542;51.700;8.846;2024-03-08T09:27:17;11.00;99.90
50586;DHT22;36542;51.700;8.846;2024-03-08T09:29:43;10.90;99.90
50586;DHT22;36542;51.700;8.846;2024-03-08T09:32:10;10.50;99.90
50586;DHT22;36542;51.700;8.846;2024-03-08T09:34:37;11.00;99.90
50586;DHT22;36542;51.700;8.846;2024-03-08T09:37:03;10.60;99.90
50586;DHT22;36542;51.700;8.846;2024-03-08T09:39:30;10.70;99.90
50586;DHT22;36542;51.700;8.846;2024-03-08T09:41:55;10.60;99.90
50586;DHT22;36542;51.700;8.846;2024-03-08T09:44:22;10.10;99.90
50586;DHT22;36542;51.700;8.846;2024-03-08T09:46:49;10.10;99.90
50586;DHT22;36542;51.700;8.846;2024-03-08T09:49:18;10.40;99.90
50586;DHT22;36542;51.700;8.846;2024-03-08T09:51:44;10.70;99.90
50586;DHT22;36542;51.700;8.846;2024-03-08T09:54:10;10.90;99.90
50586;DHT22;36542;51.700;8.846;2024-03-08T09:56:37;11.00;99.90
50586;DHT22;36542;51.700;8.846;2024-03-08T09:59:05;10.70;99.90
50586;DHT22;36542;51.700;8.846;2024-03-08T10:01:51;11.00;99.90
50586;DHT22;36542;51.700;8.846;2024-03-08T10:04:25;11.70;99.90
50586;DHT22;36542;51.700;8.846;2024-03-08T10:06:51;12.10;99.90
50586;DHT22;36542;51.700;8.846;2024-03-08T10:09:17;12.70;99.90
50586;DHT22;36542;51.700;8.846;2024-03-08T10:11:44;12.70;99.90
50586;DHT22;36542;51.700;8.846;2024-03-08T10:14:10;12.50;99.90
50586;DHT22;36542;51.700;8.846;2024-03-08T10:16:36;12.80;99.90
50586;DHT22;36542;51.700;8.846;2024-03-08T10:19:01;12.30;99.90
50586;DHT22;36542;51.700;8.846;2024-03-08T10:21:28;12.40;99.90
50586;DHT22;36542;51.700;8.846;2024-03-08T10:23:56;11.90;99.90
50586;DHT22;36542;51.700;8.846;2024-03-08T10:26:21;12.10;99.90
50586;DHT22;36542;51.700;8.846;2024-03-08T10:28:48;12.00;99.90
50586;DHT22;36542;51.700;8.846;2024-03-08T10:31:15;12.20;99.90
50586;DHT22;36542;51.700;8.846;2024-03-08T10:33:41;11.50;99.90
50586;DHT22;36542;51.700;8.846;2024-03-08T10:36:08;11.40;99.90
50586;DHT22;36542;51.700;8.846;2024-03-08T10:38:37;11.30;99.90
50586;DHT22;36542;51.700;8.846;2024-03-08T10:41:06;10.80;99.90
50586;DHT22;36542;51.700;8.846;2024-03-08T10:46:16;11.20;99.90
50586;DHT22;36542;51.700;8.846;2024-03-08T10:48:49;11.60;99.90
50586;DHT22;36542;51.700;8.846;2024-03-08T10:51:15;11.60;99.90
50586;DHT22;36542;51.700;8.846;2024-03-08T10:53:42;11.90;99.90
50586;DHT22;36542;51.700;8.846;2024-03-08T10:56:09;11.70;99.90
50586;DHT22;36542;51.700;8.846;2024-03-08T10:58:36;11.50;99.90
50586;DHT22;36542;51.700;8.846;2024-03-08T11:01:02;11.30;99.90
50586;DHT22;36542;51.700;8.846;2024-03-08T11:09:01;10.90;99.90
50586;DHT22;36542;51.700;8.846;2024-03-08T11:11:33;10.60;99.90
50586;DHT22;36542;51.700;8.846;2024-03-08T11:14:03;10.50;99.90
50586;DHT22;36542;51.700;8.846;2024-03-08T11:19:00;10.20;99.90
50586;DHT22;36542;51.700;8.846;2024-03-08T11:21:36;10.60;99.90
50586;DHT22;36542;51.700;8.846;2024-03-08T11:24:13;10.70;99.90
50586;DHT22;36542;51.700;8.846;2024-03-08T11:26:40;10.60;99.90
50586;DHT22;36542;51.700;8.846;2024-03-08T11:29:38;10.60;99.90
50586;DHT22;36542;51.700;8.846;2024-03-08T11:32:09;10.30;99.90
50586;DHT22;36542;51.700;8.846;2024-03-08T11:34:36;10.40;99.90
50586;DHT22;36542;51.700;8.846;2024-03-08T11:37:05;10.50;99.90
50586;DHT22;36542;51.700;8.846;2024-03-08T11:39:35;10.50;99.90
50586;DHT22;36542;51.700;8.846;2024-03-08T11:42:02;9.80;99.90
50586;DHT22;36542;51.700;8.846;2024-03-08T11:44:29;9.80;99.90
50586;DHT22;36542;51.700;8.846;2024-03-08T11:46:57;10.00;99.90
50586;DHT22;36542;51.700;8.846;2024-03-08T11:49:22;10.00;99.90
50586;DHT22;36542;51.700;8.846;2024-03-08T11:51:52;9.70;99.90
50586;DHT22;36542;51.700;8.846;2024-03-08T11:54:19;9.60;99.90
50586;DHT22;36542;51.700;8.846;2024-03-08T11:56:45;8.90;99.90
50586;DHT22;36542;51.700;8.846;2024-03-08T11:59:13;8.20;99.90
50586;DHT22;36542;51.700;8.846;2024-03-08T12:01:40;8.20;99.90
50586;DHT22;36542;51.700;8.846;2024-03-08T12:04:05;8.10;99.90
50586;DHT22;36542;51.700;8.846;2024-03-08T12:06:41;8.10;99.90
50586;DHT22;36542;51.700;8.846;2024-03-08T12:09:12;8.00;99.90
50586;DHT22;36542;51.700;8.846;2024-03-08T12:11:38;7.90;99.90
50586;DHT22;36542;51.700;8.846;2024-03-08T12:14:04;8.10;99.90
50586;DHT22;36542;51.700;8.846;2024-03-08T12:16:32;8.10;99.90
50586;DHT22;36542;51.700;8.846;2024-03-08T12:18:58;8.10;99.90
50586;DHT22;36542;51.700;8.846;2024-03-08T12:21:26;8.10;99.90
50586;DHT22;36542;51.700;8.846;2024-03-08T12:24:08;8.20;99.90
50586;DHT22;36542;51.700;8.846;2024-03-08T12:26:36;8.20;99.90
50586;DHT22;36542;51.700;8.846;2024-03-08T12:31:42;8.20;99.90
50586;DHT22;36542;51.700;8.846;2024-03-08T12:34:08;8.10;99.90
50586;DHT22;36542;51.700;8.846;2024-03-08T12:36:35;8.10;99.90
50586;DHT22;36542;51.700;8.846;2024-03-08T12:39:02;7.90;99.90
50586;DHT22;36542;51.700;8.846;2024-03-08T12:41:29;7.90;99.90
50586;DHT22;36542;51.700;8.846;2024-03-08T12:43:54;8.10;99.90
50586;DHT22;36542;51.700;8.846;2024-03-08T12:46:21;8.20;99.90
50586;DHT22;36542;51.700;8.846;2024-03-08T12:48:52;8.20;99.90
50586;DHT22;36542;51.700;8.846;2024-03-08T12:51:20;8.30;99.90
50586;DHT22;36542;51.700;8.846;2024-03-08T12:53:46;8.10;99.90
50586;DHT22;36542;51.700;8.846;2024-03-08T12:56:33;8.30;99.90
50586;DHT22;36542;51.700;8.846;2024-03-08T12:59:00;8.30;99.90
50586;DHT22;36542;51.700;8.846;2024-03-08T13:01:26;8.10;99.90
50586;DHT22;36542;51.700;8.846;2024-03-08T13:03:52;8.10;99.90
50586;DHT22;36542;51.700;8.846;2024-03-08T13:06:21;8.10;99.90
50586;DHT22;36542;51.700;8.846;2024-03-08T13:08:50;8.10;99.90
50586;DHT22;36542;51.700;8.846;2024-03-08T13:11:17;8.00;99.90
50586;DHT22;36542;51.700;8.846;2024-03-08T13:13:45;7.90;99.90
50586;DHT22;36542;51.700;8.846;2024-03-08T13:16:11;8.10;99.90
50586;DHT22;36542;51.700;8.846;2024-03-08T13:18:40;8.20;99.90
50586;DHT22;36542;51.700;8.846;2024-03-08T13:21:07;8.50;99.90
50586;DHT22;36542;51.700;8.846;2024-03-08T13:23:35;8.50;99.90
50586;DHT22;36542;51.700;8.846;2024-03-08T13:26:12;8.60;99.90
50586;DHT22;36542;51.700;8.846;2024-03-08T13:28:51;8.50;99.90
50586;DHT22;36542;51.700;8.846;2024-03-08T13:31:21;8.60;99.90
50586;DHT22;36542;51.700;8.846;2024-03-08T13:33:47;8.40;99.90
50586;DHT22;36542;51.700;8.846;2024-03-08T13:36:13;8.40;99.90
50586;DHT22;36542;51.700;8.846;2024-03-08T13:38:47;8.50;99.90
50586;DHT22;36542;51.700;8.846;2024-03-08T13:41:16;8.50;99.90
50586;DHT22;36542;51.700;8.846;2024-03-08T13:43:43;8.30;99.90
50586;DHT22;36542;51.700;8.846;2024-03-08T13:46:10;8.30;99.90
50586;DHT22;36542;51.700;8.846;2024-03-08T13:48:36;8.50;99.90
50586;DHT22;36542;51.700;8.846;2024-03-08T13:51:06;8.50;99.90
50586;DHT22;36542;51.700;8.846;2024-03-08T13:53:33;8.50;99.90
50586;DHT22;36542;51.700;8.846;2024-03-08T13:56:03;8.60;99.90
50586;DHT22;36542;51.700;8.846;2024-03-08T13:58:29;8.60;99.90
50586;DHT22;36542;51.700;8.846;2024-03-08T14:00:55;8.60;99.90
50586;DHT22;36542;51.700;8.846;2024-03-08T14:03:21;8.70;99.90
50586;DHT22;36542;51.700;8.846;2024-03-08T14:05:46;8.60;99.90
50586;DHT22;36542;51.700;8.846;2024-03-08T14:08:12;8.60;99.90
50586;DHT22;36542;51.700;8.846;2024-03-08T14:10:39;8.60;99.90
50586;DHT22;36542;51.700;8.846;2024-03-08T14:13:05;8.60;99.90
50586;DHT22;36542;51.700;8.846;2024-03-08T14:15:32;8.50;99.90
50586;DHT22;36542;51.700;8.846;2024-03-08T14:17:58;8.50;99.90
50586;DHT22;36542;51.700;8.846;2024-03-08T14:20:24;8.50;99.90
50586;DHT22;36542;51.700;8.846;2024-03-08T14:22:54;8.50;99.90
50586;DHT22;36542;51.700;8.846;2024-03-08T14:25:20;8.50;99.90
50586;DHT22;36542;51.700;8.846;2024-03-08T14:27:49;8.40;99.90
50586;DHT22;36542;51.700;8.846;2024-03-08T14:30:15;8.40;99.90
50586;DHT22;36542;51.700;8.846;2024-03-08T14:32:58;8.30;99.90
50586;DHT22;36542;51.700;8.846;2024-03-08T14:35:25;8.50;99.90
50586;DHT22;36542;51.700;8.846;2024-03-08T14:37:51;8.50;99.90
50586;DHT22;36542;51.700;8.846;2024-03-08T14:40:17;8.50;99.90
50586;DHT22;36542;51.700;8.846;2024-03-08T14:42:48;8.50;99.90
50586;DHT22;36542;51.700;8.846;2024-03-08T14:45:15;8.60;99.90
50586;DHT22;36542;51.700;8.846;2024-03-08T14:47:41;8.60;99.90
50586;DHT22;36542;51.700;8.846;2024-03-08T14:50:08;8.50;99.90
50586;DHT22;36542;51.700;8.846;2024-03-08T14:52:35;8.50;99.90
50586;DHT22;36542;51.700;8.846;2024-03-08T14:55:01;8.60;99.90
50586;DHT22;36542;51.700;8.846;2024-03-08T14:57:28;8.50;99.90
50586;DHT22;36542;51.700;8.846;2024-03-08T14:59:54;8.60;99.90
50586;DHT22;36542;51.700;8.846;2024-03-08T15:02:20;8.70;99.90
50586;DHT22;36542;51.700;8.846;2024-03-08T15:04:47;8.80;99.90
50586;DHT22;36542;51.700;8.846;2024-03-08T15:07:23;9.00;99.90
50586;DHT22;36542;51.700;8.846;2024-03-08T15:09:49;9.00;99.90
50586;DHT22;36542;51.700;8.846;2024-03-08T15:12:14;9.00;99.90
50586;DHT22;36542;51.700;8.846;2024-03-08T15:14:41;8.80;99.90
50586;DHT22;36542;51.700;8.846;2024-03-08T15:17:09;8.70;99.90
50586;DHT22;36542;51.700;8.846;2024-03-08T15:19:43;8.70;99.90
50586;DHT22;36542;51.700;8.846;2024-03-08T15:22:10;8.70;99.90
50586;DHT22;36542;51.700;8.846;2024-03-08T15:24:37;8.60;99.90
50586;DHT22;36542;51.700;8.846;2024-03-08T15:27:03;8.60;99.90
50586;DHT22;36542;51.700;8.846;2024-03-08T15:29:29;8.50;99.90
50586;DHT22;36542;51.700;8.846;2024-03-08T15:31:54;8.50;99.90
50586;DHT22;36542;51.700;8.846;2024-03-08T15:34:20;8.40;99.90
50586;DHT22;36542;51.700;8.846;2024-03-08T15:36:50;8.40;99.90
50586;DHT22;36542;51.700;8.846;2024-03-08T15:39:19;8.30;99.90
50586;DHT22;36542;51.700;8.846;2024-03-08T15:41:48;8.40;99.90
50586;DHT22;36542;51.700;8.846;2024-03-08T15:44:14;8.40;99.90
50586;DHT22;36542;51.700;8.846;2024-03-08T15:46:41;8.30;99.90
50586;DHT22;36542;51.700;8.846;2024-03-08T15:49:07;8.30;99.90
50586;DHT22;36542;51.700;8.846;2024-03-08T15:51:34;8.30;99.90
50586;DHT22;36542;51.700;8.846;2024-03-08T15:54:02;8.30;99.90
50586;DHT22;36542;51.700;8.846;2024-03-08T15:56:30;8.20;99.90